Time;durP1;ratioP1;P1;durP2;ratioP2;P2;SDS_P1;SDS_P2;PMS_P1;PMS_P2;Temp;Humidity;BMP_temperature;BMP_pressure;BME280_temperature;BME280_humidity;BME280_pressure;Samples;Min_cycle;Max_cycle;Signal;HPM_P1;HPM_P2
2022/05/11 00:00:12;;;;;;;19.23;5.43;;;;;;;-144.47;45.35;53175.88;5008790;28;20026;-63
2022/05/11 00:02:38;;;;;;;11.80;6.22;;;;;;;-144.47;45.18;53167.94;5006868;28;20026;-64
2022/05/11 00:05:06;;;;;;;14.68;5.63;;;;;;;-144.47;45.28;53197.72;5009891;28;20115;-64
2022/05/11 00:07:31;;;;;;;9.80;5.93;;;;;;;-144.47;45.23;53183.81;5009346;28;20034;-65
2022/05/11 00:09:56;;;;;;;19.15;6.78;;;;;;;-144.47;45.25;53193.75;5008876;28;20275;-65
2022/05/11 00:12:21;;;;;;;11.00;5.72;;;;;;;-144.47;45.31;53144.09;5009218;28;20025;-64
2022/05/11 00:14:47;;;;;;;12.07;5.55;;;;;;;-144.47;45.25;53146.09;4991607;28;20030;-65
2022/05/11 00:17:12;;;;;;;15.32;5.40;;;;;;;-144.47;45.32;53122.25;5009326;28;20057;-66
2022/05/11 00:19:37;;;;;;;13.15;5.40;;;;;;;-144.47;45.37;53144.09;4991613;28;20535;-65
2022/05/11 00:22:03;;;;;;;10.63;5.50;;;;;;;-144.47;45.46;53150.06;5009533;28;20046;-65
2022/05/11 00:24:28;;;;;;;14.02;5.25;;;;;;;-144.47;45.53;53183.81;5009530;28;20076;-65
2022/05/11 00:26:53;;;;;;;10.48;5.43;;;;;;;-144.47;45.46;53098.41;4996522;28;20034;-65
2022/05/11 00:29:19;;;;;;;10.27;5.75;;;;;;;-144.47;45.47;53185.81;4999651;28;20037;-62
2022/05/11 00:31:44;;;;;;;12.57;5.70;;;;;;;-144.47;45.46;53161.97;5008959;28;20421;-65
2022/05/11 00:34:09;;;;;;;16.02;5.50;;;;;;;-144.47;45.61;53112.31;5010750;28;20523;-66
2022/05/11 00:36:36;;;;;;;13.30;5.90;;;;;;;-144.47;45.54;53150.06;4995518;28;20018;-66
2022/05/11 00:39:02;;;;;;;10.00;5.53;;;;;;;-144.47;45.59;53177.88;5012444;28;20021;-65
2022/05/11 00:41:28;;;;;;;9.82;5.68;;;;;;;-144.47;45.66;53142.09;5010120;28;20040;-65
2022/05/11 00:44:01;;;;;;;10.63;5.40;;;;;;;-144.47;45.60;53156.00;5013375;28;20401;-64
2022/05/11 00:46:42;;;;;;;10.05;5.75;;;;;;;-144.47;45.74;53173.88;5013047;28;20420;-64
2022/05/11 00:49:33;;;;;;;13.23;6.00;;;;;;;-144.47;45.68;53181.84;5013086;28;20025;-64
2022/05/11 00:52:04;;;;;;;14.13;5.05;;;;;;;-144.47;45.90;53173.88;5013064;28;20029;-63
2022/05/11 00:54:32;;;;;;;18.80;6.65;;;;;;;-144.47;45.95;53197.72;5012544;28;20017;-64
2022/05/11 00:57:02;;;;;;;16.58;6.13;;;;;;;-144.47;46.10;53156.00;4995228;28;20029;-62
2022/05/11 00:59:36;;;;;;;13.13;6.43;;;;;;;-144.47;46.10;53173.88;5008367;28;20499;-63
2022/05/11 01:02:04;;;;;;;11.75;6.07;;;;;;;-144.47;46.09;53160.00;5006712;28;20432;-63
2022/05/11 01:04:33;;;;;;;11.48;6.38;;;;;;;-144.47;46.39;53138.13;5012888;28;20500;-61
2022/05/11 01:07:01;;;;;;;11.55;5.50;;;;;;;-144.47;46.43;53179.84;5012700;28;20029;-63
2022/05/11 01:09:26;;;;;;;11.57;6.30;;;;;;;-144.47;46.65;53124.22;5011829;28;20025;-63
2022/05/11 01:11:55;;;;;;;12.38;5.65;;;;;;;-144.47;46.68;53160.00;5012538;28;20133;-63
2022/05/11 01:14:24;;;;;;;17.90;6.07;;;;;;;-144.47;46.75;53179.84;5012424;28;20037;-59
2022/05/11 01:16:50;;;;;;;8.93;5.75;;;;;;;-144.47;46.85;53185.81;5012777;28;20033;-64
2022/05/11 01:19:28;;;;;;;18.13;6.85;;;;;;;-144.47;46.99;53154.03;5011966;28;20033;-63
2022/05/11 01:22:20;;;;;;;8.30;5.28;;;;;;;-144.47;47.08;53179.84;5012670;28;20021;-64
2022/05/11 01:24:47;;;;;;;12.10;5.40;;;;;;;-144.47;47.29;53169.91;5012378;28;20040;-65
2022/05/11 01:27:35;;;;;;;14.32;6.10;;;;;;;-144.47;47.39;53161.97;5012280;28;20081;-65
2022/05/11 01:30:08;;;;;;;17.05;6.25;;;;;;;-144.47;47.42;53163.97;4994632;28;20056;-63
2022/05/11 01:32:33;;;;;;;10.07;5.53;;;;;;;-144.47;47.52;53136.16;5012197;28;20034;-64
2022/05/11 01:35:10;;;;;;;10.07;5.65;;;;;;;-144.47;47.64;53179.84;5012334;28;20468;-64
2022/05/11 01:37:42;;;;;;;9.82;5.38;;;;;;;-144.47;47.69;53161.97;5012426;28;20444;-64
2022/05/11 01:40:08;;;;;;;11.70;5.35;;;;;;;-144.47;47.77;53207.66;5011371;28;20033;-64
2022/05/11 01:42:33;;;;;;;10.75;5.55;;;;;;;-144.47;47.90;53189.78;5009321;28;20058;-63
2022/05/11 01:44:58;;;;;;;10.30;5.55;;;;;;;-144.47;48.02;53144.09;5011903;28;20060;-64
2022/05/11 01:47:23;;;;;;;9.82;5.57;;;;;;;-144.47;48.12;53169.91;5011845;28;20076;-65
2022/05/11 01:49:49;;;;;;;15.45;6.32;;;;;;;-144.47;48.22;53207.66;4999696;28;20108;-63
2022/05/11 01:52:14;;;;;;;13.13;5.50;;;;;;;-144.47;48.20;53156.00;5011734;28;20026;-66
2022/05/11 01:54:39;;;;;;;13.45;6.00;;;;;;;-144.47;48.23;53160.00;5011668;28;20022;-63
2022/05/11 01:57:05;;;;;;;12.15;5.82;;;;;;;-144.47;48.43;53193.75;5011844;28;20061;-65
2022/05/11 01:59:30;;;;;;;13.95;5.65;;;;;;;-144.47;48.51;53191.78;5011551;28;20045;-65
2022/05/11 02:01:55;;;;;;;10.68;5.60;;;;;;;-144.47;48.55;53205.66;5011905;28;20521;-65
2022/05/11 02:09:48;;;;;;;12.75;5.57;;;;;;;-144.47;48.87;53154.03;4998857;28;20455;-65
2022/05/11 02:12:14;;;;;;;13.35;5.50;;;;;;;-144.47;48.77;53179.84;5011699;28;20049;-62
2022/05/11 02:14:40;;;;;;;9.43;5.45;;;;;;;-144.47;48.86;53209.66;5012064;28;20017;-64
2022/05/11 02:17:05;;;;;;;11.27;6.07;;;;;;;-144.47;48.83;53205.66;5011440;28;20401;-60
2022/05/11 02:19:31;;;;;;;16.63;5.57;;;;;;;-144.47;48.77;53203.69;5011289;28;20026;-64
2022/05/11 02:21:56;;;;;;;8.95;5.10;;;;;;;-144.47;48.87;53193.75;5011608;28;20025;-66
2022/05/11 02:24:23;;;;;;;17.60;6.85;;;;;;;-144.47;48.88;53171.91;5011685;28;20022;-61
2022/05/11 02:26:48;;;;;;;9.35;5.35;;;;;;;-144.47;48.82;53179.84;5002738;28;20022;-64
2022/05/11 02:29:13;;;;;;;16.35;5.95;;;;;;;-144.47;48.99;53146.09;5006928;28;20135;-64
2022/05/11 02:31:39;;;;;;;10.55;5.40;;;;;;;-144.47;48.99;53231.50;5012212;28;20029;-65
2022/05/11 02:34:06;;;;;;;13.00;6.28;;;;;;;-144.47;49.25;53169.91;5011477;28;20551;-64
2022/05/11 02:36:33;;;;;;;14.93;6.25;;;;;;;-144.47;49.42;53219.56;5011444;28;20109;-65
2022/05/11 02:38:58;;;;;;;16.17;7.65;;;;;;;-144.47;49.40;53203.69;5010608;28;20017;-65
2022/05/11 02:41:24;;;;;;;13.32;7.70;;;;;;;-144.47;49.48;53211.63;5007287;28;20032;-63
2022/05/11 02:43:49;;;;;;;15.30;6.90;;;;;;;-144.47;49.48;53205.66;4993491;28;20113;-63
2022/05/11 02:46:15;;;;;;;16.48;6.78;;;;;;;-144.47;49.56;53191.78;5011065;28;20594;-65
2022/05/11 02:48:40;;;;;;;16.25;6.60;;;;;;;-144.47;49.31;53163.97;5010592;28;20029;-63
2022/05/11 02:51:06;;;;;;;13.00;6.53;;;;;;;-144.47;49.31;53156.00;5011108;28;20100;-64
2022/05/11 02:53:32;;;;;;;16.25;5.72;;;;;;;-144.47;49.47;53247.38;5010826;28;20026;-62
2022/05/11 02:55:58;;;;;;;9.80;5.85;;;;;;;-144.47;49.42;53197.72;5010340;28;20024;-64
2022/05/11 02:58:29;;;;;;;8.85;5.13;;;;;;;-144.47;49.10;53205.66;5002084;28;20490;-63
2022/05/11 03:00:58;;;;;;;16.13;5.88;;;;;;;-144.47;48.96;53179.84;4995170;28;20486;-62
2022/05/11 03:03:23;;;;;;;14.43;5.70;;;;;;;-144.47;49.11;53203.69;5010093;28;20080;-61
2022/05/11 03:05:52;;;;;;;14.27;6.03;;;;;;;-144.47;49.26;53150.06;5010775;28;20037;-64
2022/05/11 03:08:19;;;;;;;11.25;5.85;;;;;;;-144.47;49.38;53175.88;4997684;28;20029;-64
2022/05/11 03:10:44;;;;;;;9.10;5.82;;;;;;;-144.47;49.71;53195.75;5009463;28;20037;-64
2022/05/11 03:13:10;;;;;;;12.35;6.53;;;;;;;-144.47;50.04;53201.69;4992702;28;20029;-65
2022/05/11 03:15:36;;;;;;;14.68;5.90;;;;;;;-144.47;49.97;53167.94;5010578;28;20033;-61
2022/05/11 03:18:02;;;;;;;12.55;5.72;;;;;;;-144.47;49.77;53197.72;5010551;28;20029;-64
2022/05/11 03:20:27;;;;;;;11.48;5.80;;;;;;;-144.47;49.71;53181.84;5010143;28;20497;-65
2022/05/11 03:22:54;;;;;;;10.77;5.82;;;;;;;-144.47;49.77;53177.88;5010883;28;20025;-63
2022/05/11 03:25:20;;;;;;;9.35;6.07;;;;;;;-144.47;49.71;53152.03;5009999;28;20517;-62
2022/05/11 03:27:46;;;;;;;11.88;6.20;;;;;;;-144.47;49.84;53177.88;5009381;28;20069;-63
2022/05/11 03:30:12;;;;;;;13.90;6.05;;;;;;;-144.47;50.23;53211.63;5008994;28;20701;-64
2022/05/11 03:35:32;;;;;;;11.63;5.68;;;;;;;-144.47;50.07;53195.75;5006537;28;20037;-65
2022/05/11 03:37:58;;;;;;;15.73;5.82;;;;;;;-144.47;49.88;53175.88;5010222;28;20052;-64
2022/05/11 03:40:23;;;;;;;17.58;7.22;;;;;;;-144.47;50.04;53179.84;4991832;28;20022;-64
2022/05/11 03:42:48;;;;;;;10.48;5.75;;;;;;;-144.47;50.10;53181.84;4995255;28;20030;-62
2022/05/11 03:45:23;;;;;;;13.98;6.22;;;;;;;-144.47;50.31;53197.72;5009832;28;20105;-64
2022/05/11 03:47:49;;;;;;;10.63;6.35;;;;;;;-144.47;50.21;53195.75;4992255;28;20021;-67
2022/05/11 03:50:16;;;;;;;13.15;7.20;;;;;;;-144.47;50.40;53207.66;4991402;28;20034;-65
2022/05/11 03:52:42;;;;;;;16.67;6.20;;;;;;;-144.47;50.60;53213.63;4992372;28;20022;-64
2022/05/11 03:55:10;;;;;;;13.43;5.68;;;;;;;-144.47;50.72;53187.78;5009834;28;20037;-62
2022/05/11 03:57:37;;;;;;;8.77;6.13;;;;;;;-144.47;51.00;53185.81;5009958;28;20228;-66
2022/05/11 04:00:06;;;;;;;11.90;6.90;;;;;;;-144.47;50.97;53187.78;5009350;28;20040;-65
2022/05/11 04:02:32;;;;;;;15.07;6.22;;;;;;;-144.47;51.00;53148.06;5009728;28;20017;-64
2022/05/11 04:04:57;;;;;;;10.90;6.03;;;;;;;-144.47;50.61;53193.75;5009551;28;20071;-64
2022/05/11 04:07:22;;;;;;;11.52;6.82;;;;;;;-144.47;50.62;53187.78;5009192;28;20056;-65
2022/05/11 04:09:48;;;;;;;9.95;6.45;;;;;;;-144.47;50.39;53173.88;5007923;28;20069;-64
2022/05/11 04:12:13;;;;;;;16.35;6.88;;;;;;;-144.47;50.66;53163.97;5008532;28;20503;-63
2022/05/11 04:14:39;;;;;;;16.10;7.05;;;;;;;-144.47;50.69;53193.75;5009123;28;20034;-62
2022/05/11 04:17:04;;;;;;;12.82;7.07;;;;;;;-144.47;50.55;53199.72;5002399;28;20038;-66
2022/05/11 04:19:29;;;;;;;13.90;6.55;;;;;;;-144.47;50.21;53179.84;5002332;28;20068;-63
2022/05/11 04:21:55;;;;;;;14.82;6.70;;;;;;;-144.47;50.10;53195.75;5008873;28;20025;-67
2022/05/11 04:24:21;;;;;;;13.80;7.78;;;;;;;-144.47;49.85;53163.97;5009595;28;20037;-64
2022/05/11 04:26:46;;;;;;;9.70;5.63;;;;;;;-144.47;49.43;53187.78;5003684;28;20056;-63
2022/05/11 04:29:12;;;;;;;9.48;5.82;;;;;;;-144.47;49.23;53158.00;5000849;28;20683;-66
2022/05/11 04:31:40;;;;;;;10.85;6.55;;;;;;;-144.47;49.16;53189.78;4998890;28;20105;-64
2022/05/11 04:34:06;;;;;;;11.27;6.63;;;;;;;-144.47;49.25;53185.81;5006973;28;20369;-65
2022/05/11 04:36:32;;;;;;;12.85;6.60;;;;;;;-144.47;49.37;53215.59;5009421;28;20183;-64
2022/05/11 04:38:58;;;;;;;10.82;5.95;;;;;;;-144.47;49.32;53152.03;5008579;28;20075;-63
2022/05/11 04:41:23;;;;;;;16.50;6.45;;;;;;;-144.47;49.32;53203.69;5008186;28;20097;-65
2022/05/11 04:43:49;;;;;;;20.27;7.13;;;;;;;-144.47;50.15;53201.69;4990253;28;20358;-64
2022/05/11 04:46:14;;;;;;;10.25;6.18;;;;;;;-144.47;50.66;53193.75;5008119;28;20053;-64
2022/05/11 04:48:42;;;;;;;20.30;6.43;;;;;;;-144.47;51.05;53185.81;5009026;28;20504;-66
2022/05/11 04:51:08;;;;;;;15.23;7.22;;;;;;;-144.47;51.28;53158.00;5009167;28;20029;-65
2022/05/11 04:53:33;;;;;;;12.40;6.60;;;;;;;-144.47;51.29;53148.06;5003309;28;20413;-65
2022/05/11 04:55:58;;;;;;;12.55;7.18;;;;;;;-144.47;50.94;53173.88;5008802;28;20026;-65
2022/05/11 04:58:24;;;;;;;20.00;7.38;;;;;;;-144.47;50.70;53175.88;5000706;28;20052;-65
2022/05/11 05:00:49;;;;;;;25.95;7.32;;;;;;;-144.47;50.63;53181.84;4996409;28;20030;-63
2022/05/11 05:03:15;;;;;;;20.85;7.50;;;;;;;-144.47;50.44;53195.75;5007255;28;20503;-65
2022/05/11 05:05:41;;;;;;;13.68;7.20;;;;;;;-144.47;50.13;53175.88;5008883;28;20076;-65
2022/05/11 05:08:07;;;;;;;26.10;7.93;;;;;;;-144.47;49.37;53173.88;4990497;28;20033;-62
2022/05/11 05:10:33;;;;;;;12.57;6.82;;;;;;;-144.47;49.28;53195.75;5034813;22;20037;-69
2022/05/11 05:13:08;;;;;;;31.70;7.60;;;;;;;-144.47;49.05;53175.88;5026959;28;20052;-70
2022/05/11 05:15:36;;;;;;;19.73;7.88;;;;;;;-144.47;49.07;53177.88;5035981;28;20079;-71
2022/05/11 05:18:02;;;;;;;25.85;7.78;;;;;;;-144.47;49.06;53179.84;5034098;28;20482;-70
2022/05/11 05:20:29;;;;;;;17.52;7.07;;;;;;;-144.47;48.24;53197.72;5037816;28;20057;-70
2022/05/11 05:22:54;;;;;;;12.45;7.32;;;;;;;-144.47;47.94;53183.81;5031008;28;20121;-69
2022/05/11 05:25:20;;;;;;;21.20;8.20;;;;;;;-144.47;47.96;53197.72;5030486;28;20032;-68
2022/05/11 05:27:45;;;;;;;13.55;7.40;;;;;;;-144.47;47.85;53191.78;5030761;28;20033;-71
2022/05/11 05:32:55;;;;;;;45.42;8.70;;;;;;;-144.47;47.82;53154.03;5046007;28;20037;-70
2022/05/11 05:35:21;;;;;;;26.67;7.70;;;;;;;-144.47;47.51;53181.84;5033203;28;20029;-68
2022/05/11 05:37:46;;;;;;;48.10;7.85;;;;;;;-144.47;47.41;53158.00;5031677;28;20060;-70
2022/05/11 05:40:13;;;;;;;39.42;8.57;;;;;;;-144.47;47.27;53161.97;5024477;28;20032;-70
2022/05/11 05:42:38;;;;;;;38.47;9.55;;;;;;;-144.47;47.22;53132.19;5028855;28;20025;-70
2022/05/11 05:45:08;;;;;;;27.40;5.88;;;;;;;-144.47;47.25;53148.06;5030562;28;20127;-70
2022/05/11 05:47:34;;;;;;;19.70;6.78;;;;;;;-144.47;47.19;53175.88;5018519;28;20014;-70
2022/05/11 05:49:59;;;;;;;24.80;7.45;;;;;;;-144.47;46.89;53185.81;5016122;28;20029;-69
2022/05/11 05:52:25;;;;;;;29.20;6.47;;;;;;;-144.47;46.98;53148.06;5030321;28;20553;-68
2022/05/11 05:54:52;;;;;;;20.40;6.22;;;;;;;-144.47;46.82;53177.88;5014343;28;20021;-68
2022/05/11 05:57:18;;;;;;;36.17;7.05;;;;;;;-144.47;47.00;53142.09;5031305;28;20592;-70
2022/05/11 05:59:47;;;;;;;19.88;7.50;;;;;;;-144.47;46.92;53138.13;5030647;28;20029;-71
2022/05/11 06:02:13;;;;;;;19.20;7.53;;;;;;;-144.47;46.91;53140.13;5030613;28;20504;-71
2022/05/11 06:04:46;;;;;;;18.52;6.95;;;;;;;-144.47;46.96;53165.94;5044153;28;20095;-68
2022/05/11 06:07:12;;;;;;;19.98;7.07;;;;;;;-144.47;47.14;53163.97;5028878;28;20084;-71
2022/05/11 06:09:39;;;;;;;31.38;7.43;;;;;;;-144.47;47.14;53122.25;5029790;28;20520;-69
2022/05/11 06:12:06;;;;;;;20.52;7.20;;;;;;;-144.47;47.05;53158.00;5043114;28;20067;-66
2022/05/11 06:14:31;;;;;;;27.35;7.05;;;;;;;-144.47;47.07;53158.00;5040035;28;20105;-68
2022/05/11 06:16:59;;;;;;;23.63;6.30;;;;;;;-144.47;46.82;53167.94;5019489;28;20109;-67
2022/05/11 06:19:25;;;;;;;36.83;6.72;;;;;;;-144.47;46.90;53146.09;5034987;28;20033;-67
2022/05/11 06:21:50;;;;;;;26.42;7.63;;;;;;;-144.47;47.09;53142.09;5037675;28;20052;-68
2022/05/11 06:24:16;;;;;;;17.13;7.07;;;;;;;-144.47;47.22;53163.97;5044034;28;20025;-67
2022/05/11 06:26:41;;;;;;;17.17;6.70;;;;;;;-144.47;47.31;53138.13;5018308;28;20033;-67
2022/05/11 06:29:07;;;;;;;20.13;6.00;;;;;;;-144.47;47.32;53146.09;5033379;28;20133;-67
2022/05/11 06:31:32;;;;;;;26.05;6.55;;;;;;;-144.47;47.54;53142.09;5035759;28;20025;-67
2022/05/11 06:33:57;;;;;;;22.00;6.53;;;;;;;-144.47;47.47;53161.97;5029491;28;20025;-67
2022/05/11 06:36:23;;;;;;;22.13;6.72;;;;;;;-144.47;47.37;53156.00;5029770;28;20025;-68
2022/05/11 06:38:50;;;;;;;41.00;9.57;;;;;;;-144.47;47.44;53128.22;5029511;28;20499;-68
2022/05/11 06:41:19;;;;;;;28.15;8.13;;;;;;;-144.47;47.52;53122.25;5028243;28;20089;-69
2022/05/11 06:43:45;;;;;;;21.52;6.97;;;;;;;-144.47;47.17;53130.19;5030770;28;20018;-68
2022/05/11 06:46:11;;;;;;;23.38;5.72;;;;;;;-144.47;47.21;53177.88;5030313;28;20052;-70
2022/05/11 06:48:36;;;;;;;22.60;6.22;;;;;;;-144.47;46.86;53171.91;5029826;28;20495;-69
2022/05/11 06:51:01;;;;;;;29.58;6.07;;;;;;;-144.47;46.87;53177.88;5030331;28;20029;-67
2022/05/11 06:53:27;;;;;;;22.42;7.15;;;;;;;-144.47;46.80;53169.91;5030267;28;20017;-69
2022/05/11 07:01:21;;;;;;;17.10;6.00;;;;;;;-144.47;46.01;53140.13;5026942;28;20036;-68
2022/05/11 07:03:46;;;;;;;29.25;5.38;;;;;;;-144.47;46.03;53146.09;5029985;28;20017;-66
2022/05/11 07:06:12;;;;;;;16.27;5.60;;;;;;;-144.47;46.21;53158.00;5029761;28;20061;-69
2022/05/11 07:08:42;;;;;;;24.30;6.47;;;;;;;-144.47;46.07;53183.81;5029912;28;20491;-67
2022/05/11 07:13:55;;;;;;;13.50;5.28;;;;;;;-144.47;45.83;53173.88;5042870;28;20032;-68
2022/05/11 07:16:23;;;;;;;20.75;5.70;;;;;;;-144.47;45.68;53146.09;5028165;28;20033;-67
2022/05/11 07:18:49;;;;;;;16.25;5.72;;;;;;;-144.47;45.17;53122.25;5024729;28;20021;-68
2022/05/11 07:21:14;;;;;;;14.20;4.97;;;;;;;-144.47;44.96;53114.31;5029285;28;20151;-66
2022/05/11 07:23:40;;;;;;;16.73;5.28;;;;;;;-144.47;45.06;53116.28;5029702;28;20131;-66
2022/05/11 07:26:05;;;;;;;16.85;5.38;;;;;;;-144.47;44.77;53142.09;5027996;28;20037;-68
2022/05/11 07:28:30;;;;;;;16.15;5.10;;;;;;;-144.47;44.59;53138.13;5029702;28;20052;-70
2022/05/11 07:30:56;;;;;;;16.65;5.25;;;;;;;-144.47;44.71;53142.09;5029497;28;20018;-69
2022/05/11 07:33:21;;;;;;;28.77;5.93;;;;;;;-144.47;44.35;53118.28;5029380;28;20102;-67
2022/05/11 07:35:47;;;;;;;23.45;5.30;;;;;;;-144.47;44.61;53118.28;5041775;28;20037;-69
2022/05/11 07:38:15;;;;;;;12.55;5.05;;;;;;;-144.47;44.17;53142.09;5038785;28;20484;-68
2022/05/11 07:40:42;;;;;;;12.52;5.07;;;;;;;-144.47;43.91;53132.19;5045262;28;20032;-70
2022/05/11 07:43:08;;;;;;;13.05;4.68;;;;;;;-144.47;44.15;53128.22;5030760;28;20045;-69
2022/05/11 07:45:34;;;;;;;13.52;5.53;;;;;;;-144.47;43.72;53138.13;5028258;28;20025;-67
2022/05/11 07:47:59;;;;;;;8.52;4.45;;;;;;;-144.47;43.49;53138.13;5017014;28;20089;-66
2022/05/11 07:50:25;;;;;;;13.18;4.60;;;;;;;-144.47;43.28;53108.34;5016921;28;20400;-67
2022/05/11 07:52:50;;;;;;;16.92;4.57;;;;;;;-144.47;42.84;53142.09;5038943;28;20025;-67
2022/05/11 07:55:17;;;;;;;8.95;4.88;;;;;;;-144.47;42.32;53122.25;5032842;28;20456;-69
2022/05/11 08:00:26;;;;;;;11.82;4.35;;;;;;;-144.47;41.44;53090.47;5034951;28;20097;-67
2022/05/11 08:02:52;;;;;;;9.70;4.50;;;;;;;-144.47;41.28;53142.09;5033582;28;20018;-68
2022/05/11 08:05:19;;;;;;;10.48;4.07;;;;;;;-144.47;41.53;53122.25;5028448;28;20400;-67
2022/05/11 08:07:48;;;;;;;13.57;4.30;;;;;;;-144.47;41.96;53154.03;5029009;28;20029;-67
2022/05/11 08:10:20;;;;;;;9.60;4.55;;;;;;;-144.47;41.45;53134.16;5028719;28;20045;-69
2022/05/11 08:12:46;;;;;;;6.60;4.10;;;;;;;-144.47;41.53;53112.31;5029152;28;20029;-68
2022/05/11 08:15:13;;;;;;;16.70;4.63;;;;;;;-144.47;41.13;53116.28;5023653;28;20123;-70
2022/05/11 08:17:41;;;;;;;12.20;3.80;;;;;;;-144.47;40.44;53156.00;5024227;28;20420;-68
2022/05/11 08:20:11;;;;;;;14.98;4.57;;;;;;;-144.47;40.83;53169.91;5028725;28;20167;-69
2022/05/11 08:22:37;;;;;;;12.77;4.25;;;;;;;-144.47;40.16;53122.25;5028803;28;20030;-70
2022/05/11 08:25:02;;;;;;;11.30;4.45;;;;;;;-144.47;40.26;53112.31;5032268;28;20032;-67
2022/05/11 08:27:28;;;;;;;9.18;3.80;;;;;;;-144.47;40.04;53098.41;5019817;28;20037;-66
2022/05/11 08:35:24;;;;;;;10.02;3.88;;;;;;;-144.47;39.24;53108.34;5029941;28;20095;-66
2022/05/11 08:37:49;;;;;;;7.82;3.80;;;;;;;-144.47;38.54;53122.25;5027999;28;20026;-68
2022/05/11 08:40:28;;;;;;;11.95;4.25;;;;;;;-144.47;38.64;53104.38;5040469;28;20027;-67
2022/05/11 08:42:55;;;;;;;8.82;4.00;;;;;;;-144.47;38.64;53108.34;5028522;28;20099;-68
2022/05/11 08:45:21;;;;;;;10.02;4.20;;;;;;;-144.47;38.74;53094.44;5028665;28;20057;-66
2022/05/11 08:47:48;;;;;;;7.15;3.83;;;;;;;-144.47;38.47;53096.41;5029281;28;20053;-67
2022/05/11 08:50:27;;;;;;;8.05;3.83;;;;;;;-144.47;38.43;53112.31;5028390;28;20057;-70
2022/05/11 08:53:04;;;;;;;11.65;4.10;;;;;;;-144.47;38.26;53122.25;5028800;28;20029;-67
2022/05/11 08:55:41;;;;;;;11.10;3.92;;;;;;;-144.47;38.26;53112.31;5039036;28;20017;-67
2022/05/11 08:58:21;;;;;;;10.55;3.90;;;;;;;-144.47;38.32;53118.28;5023053;28;20060;-69
2022/05/11 09:00:48;;;;;;;12.38;4.10;;;;;;;-144.47;38.19;53102.38;5013827;28;20022;-66
2022/05/11 09:03:30;;;;;;;9.93;3.50;;;;;;;-144.47;38.05;53110.31;5030558;28;20099;-68
2022/05/11 09:05:57;;;;;;;5.72;3.88;;;;;;;-144.47;37.91;53104.38;5032107;28;20029;-67
2022/05/11 09:08:23;;;;;;;10.02;3.88;;;;;;;-144.47;37.85;53072.59;5036011;28;20020;-68
2022/05/11 09:10:48;;;;;;;11.95;3.40;;;;;;;-144.47;37.47;53076.56;5041852;28;20373;-68
2022/05/11 09:13:14;;;;;;;31.42;4.70;;;;;;;-144.47;37.25;53098.41;5031981;28;20026;-67
2022/05/11 09:15:53;;;;;;;7.03;4.00;;;;;;;-144.47;37.08;53088.47;5026451;28;20092;-69
2022/05/11 09:18:18;;;;;;;;;;;;;;;-144.47;37.59;53086.50;5027426;28;20569;-66
2022/05/11 09:20:52;;;;;;;16.23;4.18;;;;;;;-144.47;36.76;53074.56;5044220;28;19912;-68
2022/05/11 09:23:40;;;;;;;6.68;3.65;;;;;;;-144.47;36.21;53072.59;5045372;28;20109;-68
2022/05/11 09:26:12;;;;;;;21.63;5.00;;;;;;;-144.47;36.16;53094.44;5032071;28;20079;-67
2022/05/11 09:28:41;;;;;;;9.30;3.78;;;;;;;-144.47;36.23;53072.59;5031786;28;20091;-66
2022/05/11 09:31:23;;;;;;;18.27;3.95;;;;;;;-144.47;35.82;53070.59;5030401;28;20064;-68
2022/05/11 09:33:57;;;;;;;7.10;3.90;;;;;;;-144.47;35.86;53086.50;5031636;28;20029;-67
2022/05/11 09:36:35;;;;;;;7.72;4.10;;;;;;;-144.47;35.59;53090.47;5018855;28;20025;-69
2022/05/11 09:39:12;;;;;;;;;;;;;;;-144.47;36.10;53072.59;5031985;28;20030;-65
2022/05/11 09:41:38;;;;;;;7.82;3.47;;;;;;;-144.47;36.09;53062.66;5031107;28;19909;-67
2022/05/11 09:44:18;;;;;;;11.32;3.40;;;;;;;-144.47;35.83;53056.69;5033716;28;20020;-67
2022/05/11 09:46:44;;;;;;;13.05;3.90;;;;;;;-144.47;36.00;53066.63;5043607;28;20021;-65
2022/05/11 09:49:15;;;;;;;20.73;4.25;;;;;;;-144.47;35.67;53102.38;5014883;28;20025;-68
2022/05/11 09:51:46;;;;;;;9.48;3.85;;;;;;;-144.47;35.37;53074.56;5023950;28;20104;-67
2022/05/11 09:54:15;;;;;;;10.90;3.53;;;;;;;-144.47;35.60;53038.81;5031365;28;20116;-67
2022/05/11 09:56:51;;;;;;;6.05;3.50;;;;;;;-144.47;35.21;53102.38;5030739;28;20183;-66
2022/05/11 09:59:29;;;;;;;13.70;3.97;;;;;;;-144.47;34.52;53100.41;5039218;28;20028;-66
2022/05/11 10:02:19;;;;;;;12.35;3.25;;;;;;;-144.47;34.67;53032.88;5034880;28;20176;-68
2022/05/11 10:04:58;;;;;;;10.52;3.50;;;;;;;-144.47;34.71;53036.84;5026870;28;20174;-68
2022/05/11 10:07:27;;;;;;;15.30;3.78;;;;;;;-144.47;34.62;53072.59;5031120;28;20025;-67
2022/05/11 10:10:03;;;;;;;7.18;3.30;;;;;;;-144.47;34.68;53042.78;5030473;28;20064;-68
2022/05/11 10:12:35;;;;;;;8.23;3.47;;;;;;;-144.47;34.97;53082.53;5031084;28;20030;-65
2022/05/11 10:23:53;;;;;;;19.02;3.60;;;;;;;-144.47;33.35;53106.34;5030941;28;20128;-68
2022/05/11 10:26:26;;;;;;;40.65;3.65;;;;;;;-144.47;32.98;53024.91;5020590;28;20144;-67
2022/05/11 10:29:16;;;;;;;13.80;3.35;;;;;;;-144.47;33.24;53064.66;5024545;28;20037;-67
2022/05/11 10:32:03;;;;;;;12.32;3.72;;;;;;;-144.47;33.13;53050.75;5023793;28;20047;-66
2022/05/11 10:34:39;;;;;;;20.25;3.80;;;;;;;-144.47;32.95;53026.91;5029561;28;20081;-67
2022/05/11 10:37:13;;;;;;;17.55;3.65;;;;;;;-144.47;31.95;53078.53;5030886;28;20029;-69
2022/05/11 10:40:19;;;;;;;17.85;3.30;;;;;;;-144.47;31.50;53038.81;5030430;28;20026;-67
2022/05/11 10:42:57;;;;;;;14.95;3.50;;;;;;;-144.47;31.14;53050.75;5030638;28;20040;-68
2022/05/11 10:45:35;;;;;;;19.92;4.00;;;;;;;-144.47;31.08;53015.00;5029176;28;20099;-69
2022/05/11 10:48:35;;;;;;;20.23;3.47;;;;;;;-144.47;30.69;53046.75;5030660;28;20033;-67
2022/05/11 10:51:39;;;;;;;13.85;3.28;;;;;;;-144.47;30.58;53034.84;5018083;28;20108;-65
2022/05/11 10:54:23;;;;;;;12.48;3.38;;;;;;;-144.47;30.09;53034.84;5028539;28;20129;-66
2022/05/11 10:57:16;;;;;;;9.55;3.40;;;;;;;-144.47;30.59;53038.81;5029956;28;20029;-69
2022/05/11 10:59:54;;;;;;;9.27;3.03;;;;;;;-144.47;30.30;53026.91;5026510;28;20074;-67
2022/05/11 11:02:41;;;;;;;6.72;2.88;;;;;;;-144.47;30.42;53046.75;5020597;28;20028;-67
2022/05/11 11:05:18;;;;;;;6.43;2.42;;;;;;;-144.47;30.64;53080.53;5029650;28;20025;-69
2022/05/11 11:08:12;;;;;;;15.07;3.25;;;;;;;-144.47;30.66;53032.88;5029492;28;20029;-67
2022/05/11 11:11:11;;;;;;;13.73;3.42;;;;;;;-144.47;30.54;53034.84;5031201;28;20095;-67
2022/05/11 11:13:42;;;;;;;8.55;3.00;;;;;;;-144.47;30.22;52999.09;5029581;28;20052;-66
2022/05/11 11:16:12;;;;;;;6.10;2.83;;;;;;;-144.47;30.71;53064.66;5023594;28;20089;-67
2022/05/11 11:18:45;;;;;;;14.55;2.75;;;;;;;-144.47;30.27;53048.75;5020570;28;20059;-68
2022/05/11 11:21:12;;;;;;;9.57;2.75;;;;;;;-144.47;30.40;53042.78;5029987;28;20079;-67
2022/05/11 11:23:43;;;;;;;9.13;3.05;;;;;;;-144.47;30.24;53062.66;5029872;28;20488;-69
2022/05/11 11:26:33;;;;;;;12.05;2.97;;;;;;;-144.47;30.35;53040.81;5027878;28;20060;-69
2022/05/11 11:28:58;;;;;;;12.30;3.17;;;;;;;-144.47;30.29;53018.97;5029040;28;20079;-68
2022/05/11 11:31:28;;;;;;;12.95;2.97;;;;;;;-144.47;29.63;53015.00;5029937;28;20057;-71
2022/05/11 11:33:56;;;;;;;6.25;2.80;;;;;;;-144.47;29.66;53038.81;5029453;28;20070;-68
2022/05/11 11:36:26;;;;;;;7.90;2.65;;;;;;;-144.47;29.72;52987.19;5029555;28;20514;-67
2022/05/11 11:38:52;;;;;;;12.27;2.85;;;;;;;-144.47;29.82;53050.75;5028748;28;20029;-69
2022/05/11 11:41:30;;;;;;;12.10;3.03;;;;;;;-144.47;30.02;53007.03;5029474;28;20170;-69
2022/05/11 11:44:26;;;;;;;;;;;;;;;-144.47;29.74;52993.13;5029384;28;20021;-67
2022/05/11 11:46:52;;;;;;;14.82;2.95;;;;;;;-144.47;29.39;53003.06;5025207;28;19909;-69
2022/05/11 11:49:18;;;;;;;7.38;3.00;;;;;;;-144.47;29.80;53015.00;5015007;28;20087;-67
2022/05/11 11:51:49;;;;;;;16.75;3.58;;;;;;;-144.47;29.77;53003.06;5023615;28;20025;-66
2022/05/11 11:54:34;;;;;;;8.13;3.08;;;;;;;-144.47;30.16;52983.22;5029255;28;20119;-68
2022/05/11 11:57:01;;;;;;;10.32;2.70;;;;;;;-144.47;29.79;53015.00;5029027;28;20488;-66